createdAt,value
2019-02-27T00:00:54.295Z,1026.44
2019-02-27T00:01:54.278Z,1026.40
2019-02-27T00:02:56.130Z,1026.41
2019-02-27T00:03:54.280Z,1026.42
2019-02-27T00:04:54.928Z,1026.41
2019-02-27T00:05:54.234Z,1026.40
2019-02-27T00:06:54.230Z,1026.40
2019-02-27T00:07:54.955Z,1026.38
2019-02-27T00:08:54.221Z,1026.39
2019-02-27T00:09:54.930Z,1026.40
2019-02-27T00:10:54.182Z,1026.38
2019-02-27T00:11:54.169Z,1026.33
2019-02-27T00:12:54.162Z,1026.41
2019-02-27T00:13:57.836Z,1026.38
2019-02-27T00:14:54.139Z,1026.38
2019-02-27T00:15:54.128Z,1026.29
2019-02-27T00:16:54.964Z,1026.38
2019-02-27T00:17:54.109Z,1026.36
2019-02-27T00:18:58.637Z,1026.37
2019-02-27T00:19:54.083Z,1026.27
2019-02-27T00:20:54.074Z,1026.38
2019-02-27T00:21:54.932Z,1026.29
2019-02-27T00:22:54.932Z,1026.35
2019-02-27T00:23:56.725Z,1026.34
2019-02-27T00:24:54.030Z,1026.31
2019-02-27T00:25:54.019Z,1026.32
2019-02-27T00:26:54.007Z,1026.26
2019-02-27T00:27:54.933Z,1026.26
2019-02-27T00:28:56.115Z,1026.26
2019-02-27T00:29:54.939Z,1026.22
2019-02-27T00:30:53.969Z,1026.24
2019-02-27T00:31:53.952Z,1026.21
2019-02-27T00:32:54.932Z,1026.24
2019-02-27T00:33:53.947Z,1026.23
2019-02-27T00:34:53.924Z,1026.19
2019-02-27T00:35:53.958Z,1026.21
2019-02-27T00:36:53.897Z,1026.16
2019-02-27T00:37:53.886Z,1026.16
2019-02-27T00:38:57.727Z,1026.16
2019-02-27T00:39:53.868Z,1026.13
2019-02-27T00:40:53.853Z,1026.13
2019-02-27T00:41:54.435Z,1026.15
2019-02-27T00:42:54.313Z,1026.15
2019-02-27T00:43:53.821Z,1026.14
2019-02-27T00:44:53.949Z,1026.12
2019-02-27T00:45:53.797Z,1026.13
2019-02-27T00:46:54.433Z,1026.06
2019-02-27T00:47:53.886Z,1026.09
2019-02-27T00:48:53.767Z,1026.03
2019-02-27T00:49:53.770Z,1026.05
2019-02-27T00:50:53.744Z,1026.01
2019-02-27T00:51:53.733Z,1026.04
2019-02-27T00:52:53.723Z,1025.98
2019-02-27T00:53:55.952Z,1026.00
2019-02-27T00:54:53.711Z,1025.99
2019-02-27T00:55:53.689Z,1025.96
2019-02-27T00:56:53.678Z,1025.93
2019-02-27T00:57:54.432Z,1025.93
2019-02-27T00:58:53.658Z,1025.94
2019-02-27T00:59:53.659Z,1025.93
2019-02-27T01:00:53.635Z,1025.93
2019-02-27T01:01:53.623Z,1025.92
2019-02-27T01:02:54.439Z,1025.93
2019-02-27T01:03:53.602Z,1025.97
2019-02-27T01:04:53.617Z,1025.94
2019-02-27T01:05:53.581Z,1025.85
2019-02-27T01:06:53.571Z,1025.89
2019-02-27T01:07:54.219Z,1025.87
2019-02-27T01:08:54.438Z,1025.85
2019-02-27T01:09:53.959Z,1025.88
2019-02-27T01:10:53.523Z,1025.84
2019-02-27T01:11:53.517Z,1025.86
2019-02-27T01:12:57.690Z,1025.86
2019-02-27T01:13:54.436Z,1025.84
2019-02-27T01:14:53.509Z,1025.86
2019-02-27T01:15:53.472Z,1025.83
2019-02-27T01:16:53.467Z,1025.74
2019-02-27T01:17:55.044Z,1025.82
2019-02-27T01:18:54.436Z,1025.83
2019-02-27T01:19:53.453Z,1025.77
2019-02-27T01:20:53.420Z,1025.80
2019-02-27T01:21:53.408Z,1025.82
2019-02-27T01:22:53.399Z,1025.82
2019-02-27T01:23:53.387Z,1025.81
2019-02-27T01:24:53.397Z,1025.82
2019-02-27T01:25:56.290Z,1025.83
2019-02-27T01:26:53.354Z,1025.75
2019-02-27T01:27:53.936Z,1025.86
2019-02-27T01:28:53.350Z,1025.80
2019-02-27T01:29:53.336Z,1025.82
2019-02-27T01:30:53.312Z,1025.79
2019-02-27T01:31:54.967Z,1025.77
2019-02-27T01:32:53.939Z,1025.74
2019-02-27T01:33:53.279Z,1025.71
2019-02-27T01:34:53.272Z,1025.73
2019-02-27T01:35:53.271Z,1025.72
2019-02-27T01:36:54.905Z,1025.68
2019-02-27T01:37:53.234Z,1025.71
2019-02-27T01:38:53.234Z,1025.69
2019-02-27T01:39:53.212Z,1025.77
2019-02-27T01:40:53.217Z,1025.71
2019-02-27T01:41:55.291Z,1025.72
2019-02-27T01:42:53.939Z,1025.66
2019-02-27T01:43:53.169Z,1025.65
2019-02-27T01:44:53.158Z,1025.64
2019-02-27T01:45:54.308Z,1025.64
2019-02-27T01:46:54.663Z,1025.64
2019-02-27T01:47:53.126Z,1025.56
2019-02-27T01:48:53.939Z,1025.56
2019-02-27T01:49:53.106Z,1025.56
2019-02-27T01:50:55.294Z,1025.56
2019-02-27T01:51:53.085Z,1025.56
2019-02-27T01:52:53.071Z,1025.52
2019-02-27T01:53:53.939Z,1025.51
2019-02-27T01:54:53.067Z,1025.57
2019-02-27T01:55:56.166Z,1025.57
2019-02-27T01:56:53.028Z,1025.52
2019-02-27T01:57:53.940Z,1025.55
2019-02-27T01:58:53.940Z,1025.60
2019-02-27T01:59:53.955Z,1025.62
2019-02-27T02:00:56.090Z,1025.59
2019-02-27T02:01:52.975Z,1025.56
2019-02-27T02:02:53.940Z,1025.52
2019-02-27T02:03:52.955Z,1025.60
2019-02-27T02:04:53.969Z,1025.55
2019-02-27T02:05:52.929Z,1025.56
2019-02-27T02:06:52.933Z,1025.53
2019-02-27T02:07:53.440Z,1025.55
2019-02-27T02:08:53.441Z,1025.45
2019-02-27T02:09:55.204Z,1025.54
2019-02-27T02:10:52.876Z,1025.46
2019-02-27T02:11:52.872Z,1025.47
2019-02-27T02:12:52.863Z,1025.45
2019-02-27T02:13:53.440Z,1025.40
2019-02-27T02:14:54.465Z,1025.38
2019-02-27T02:15:52.824Z,1025.37
2019-02-27T02:16:52.951Z,1025.35
2019-02-27T02:17:53.441Z,1025.30
2019-02-27T02:18:52.789Z,1025.29
2019-02-27T02:19:54.293Z,1025.25
2019-02-27T02:20:53.441Z,1025.24
2019-02-27T02:21:52.953Z,1025.20
2019-02-27T02:22:53.441Z,1025.21
2019-02-27T02:23:52.755Z,1025.18
2019-02-27T02:24:54.182Z,1025.17
2019-02-27T02:25:52.713Z,1025.05
2019-02-27T02:26:52.715Z,1025.07
2019-02-27T02:27:53.443Z,1025.02
2019-02-27T02:28:53.441Z,1024.96
2019-02-27T02:29:53.143Z,1024.97
2019-02-27T02:30:52.661Z,1024.96
2019-02-27T02:31:52.954Z,1025.01
2019-02-27T02:32:53.329Z,1024.90
2019-02-27T02:33:53.444Z,1024.91
2019-02-27T02:34:52.630Z,1024.97
2019-02-27T02:35:52.607Z,1024.85
2019-02-27T02:36:52.602Z,1024.92
2019-02-27T02:37:52.596Z,1024.91
2019-02-27T02:38:53.443Z,1024.92
2019-02-27T02:39:54.656Z,1024.91
2019-02-27T02:40:52.550Z,1024.90
2019-02-27T02:41:53.443Z,1024.92
2019-02-27T02:42:52.544Z,1024.89
2019-02-27T02:43:52.520Z,1024.90
2019-02-27T02:44:57.243Z,1024.92
2019-02-27T02:45:52.498Z,1024.88
2019-02-27T02:46:52.489Z,1024.85
2019-02-27T02:47:55.531Z,1024.79
2019-02-27T02:48:52.465Z,1024.82
2019-02-27T02:49:52.517Z,1024.75
2019-02-27T02:50:54.315Z,1024.76
2019-02-27T02:51:52.433Z,1024.72
2019-02-27T02:52:52.442Z,1024.72
2019-02-27T02:53:52.411Z,1024.69
2019-02-27T02:54:52.411Z,1024.69
2019-02-27T02:55:52.409Z,1024.68
2019-02-27T02:56:52.377Z,1024.68
2019-02-27T02:57:52.455Z,1024.66
2019-02-27T02:58:52.355Z,1024.64
2019-02-27T02:59:52.359Z,1024.65
2019-02-27T03:00:52.335Z,1024.63
2019-02-27T03:01:52.324Z,1024.60
2019-02-27T03:02:52.457Z,1024.60
2019-02-27T03:03:52.944Z,1024.58
2019-02-27T03:04:52.308Z,1024.55
2019-02-27T03:05:58.635Z,1024.47
2019-02-27T03:06:52.271Z,1024.50
2019-02-27T03:07:52.288Z,1024.50
2019-02-27T03:08:55.296Z,1024.44
2019-02-27T03:09:52.274Z,1024.44
2019-02-27T03:10:52.225Z,1024.35
2019-02-27T03:11:54.736Z,1024.40
2019-02-27T03:12:52.945Z,1024.38
2019-02-27T03:13:52.456Z,1024.29
2019-02-27T03:14:54.186Z,1024.39
2019-02-27T03:15:52.172Z,1024.36
2019-02-27T03:16:52.157Z,1024.35
2019-02-27T03:17:54.862Z,1024.30
2019-02-27T03:18:52.144Z,1024.27
2019-02-27T03:19:52.127Z,1024.27
2019-02-27T03:20:53.098Z,1024.20
2019-02-27T03:21:52.106Z,1024.21
2019-02-27T03:22:52.092Z,1024.22
2019-02-27T03:23:52.562Z,1024.22
2019-02-27T03:24:52.070Z,1024.19
2019-02-27T03:25:52.949Z,1024.20
2019-02-27T03:26:53.225Z,1024.20
2019-02-27T03:27:52.082Z,1024.15
2019-02-27T03:28:52.042Z,1024.19
2019-02-27T03:29:53.609Z,1024.22
2019-02-27T03:30:52.012Z,1024.17
2019-02-27T03:31:59.970Z,1024.19
2019-02-27T03:32:51.995Z,1024.15
2019-02-27T03:33:51.993Z,1024.10
2019-02-27T03:34:52.009Z,1024.16
2019-02-27T03:35:52.946Z,1024.20
2019-02-27T03:36:52.448Z,1024.17
2019-02-27T03:37:51.929Z,1024.06
2019-02-27T03:38:51.937Z,1024.17
2019-02-27T03:39:51.909Z,1024.11
2019-02-27T03:40:51.899Z,1024.13
2019-02-27T03:41:58.472Z,1024.11
2019-02-27T03:42:51.882Z,1024.14
2019-02-27T03:43:51.881Z,1024.14
2019-02-27T03:44:55.781Z,1024.11
2019-02-27T03:45:51.845Z,1024.07
2019-02-27T03:46:51.841Z,1024.14
2019-02-27T03:47:52.952Z,1024.14
2019-02-27T03:48:51.959Z,1024.14
2019-02-27T03:49:51.800Z,1024.13
2019-02-27T03:50:51.789Z,1024.12
2019-02-27T03:51:51.779Z,1024.12
2019-02-27T03:52:52.456Z,1024.10
2019-02-27T03:53:51.766Z,1024.09
2019-02-27T03:54:56.967Z,1024.09
2019-02-27T03:55:51.747Z,1024.07
2019-02-27T03:56:51.722Z,1024.04
2019-02-27T03:57:54.943Z,1023.99
2019-02-27T03:58:51.700Z,1024.05
2019-02-27T03:59:51.700Z,1024.06
2019-02-27T04:00:53.726Z,1024.05
2019-02-27T04:01:52.449Z,1023.99
2019-02-27T04:02:52.448Z,1024.04
2019-02-27T04:03:55.252Z,1024.01
2019-02-27T04:04:51.652Z,1023.99
2019-02-27T04:05:51.661Z,1023.94
2019-02-27T04:06:53.051Z,1024.00
2019-02-27T04:07:51.607Z,1024.02
2019-02-27T04:08:51.592Z,1024.01
2019-02-27T04:09:55.331Z,1024.02
2019-02-27T04:10:51.579Z,1024.06
2019-02-27T04:11:52.448Z,1024.01
2019-02-27T04:12:52.402Z,1024.04
2019-02-27T04:13:51.541Z,1024.04
2019-02-27T04:14:51.541Z,1024.04
2019-02-27T04:15:53.824Z,1023.99
2019-02-27T04:16:52.450Z,1024.01
2019-02-27T04:17:52.244Z,1024.04
2019-02-27T04:18:51.488Z,1024.04
2019-02-27T04:19:51.479Z,1024.04
2019-02-27T04:20:51.459Z,1024.03
2019-02-27T04:21:51.947Z,1024.05
2019-02-27T04:22:51.437Z,1024.05
2019-02-27T04:23:51.425Z,1024.06
2019-02-27T04:24:56.101Z,1024.03
2019-02-27T04:25:51.407Z,1024.04
2019-02-27T04:26:51.392Z,1024.05
2019-02-27T04:27:55.285Z,1024.02
2019-02-27T04:28:51.370Z,1024.03
2019-02-27T04:29:51.371Z,1024.06
2019-02-27T04:30:52.083Z,1024.06
2019-02-27T04:31:51.338Z,1023.97
2019-02-27T04:32:51.329Z,1024.02
2019-02-27T04:33:51.950Z,1024.04
2019-02-27T04:34:51.349Z,1024.04
2019-02-27T04:35:51.310Z,1024.05
2019-02-27T04:36:51.282Z,1024.03
2019-02-27T04:37:53.905Z,1023.96
2019-02-27T04:38:51.257Z,1024.05
2019-02-27T04:39:51.251Z,1024.04
2019-02-27T04:40:51.260Z,1023.99
2019-02-27T04:41:52.030Z,1023.97
2019-02-27T04:42:51.215Z,1023.97
2019-02-27T04:43:51.202Z,1024.03
2019-02-27T04:44:51.193Z,1023.96
2019-02-27T04:45:51.209Z,1024.00
2019-02-27T04:46:54.830Z,1023.96
2019-02-27T04:47:51.160Z,1023.99
2019-02-27T04:48:51.148Z,1023.93
2019-02-27T04:49:51.147Z,1023.85
2019-02-27T04:50:51.151Z,1023.92
2019-02-27T04:51:51.151Z,1023.95
2019-02-27T04:52:51.105Z,1023.87
2019-02-27T04:53:51.096Z,1023.96
2019-02-27T04:54:51.086Z,1023.90
2019-02-27T04:55:51.333Z,1023.94
2019-02-27T04:56:51.066Z,1023.88
2019-02-27T04:57:51.049Z,1023.91
2019-02-27T04:58:51.044Z,1023.92
2019-02-27T04:59:52.300Z,1023.93
2019-02-27T05:00:51.474Z,1023.91
2019-02-27T05:01:51.006Z,1023.96
2019-02-27T05:02:53.394Z,1023.91
2019-02-27T05:03:50.984Z,1023.96
2019-02-27T05:04:50.974Z,1023.97
2019-02-27T05:05:50.985Z,1023.94
2019-02-27T05:06:50.951Z,1023.86
2019-02-27T05:07:54.069Z,1023.88
2019-02-27T05:08:51.459Z,1023.92
2019-02-27T05:09:50.926Z,1023.87
2019-02-27T05:10:50.912Z,1023.87
2019-02-27T05:11:50.924Z,1023.85
2019-02-27T05:12:51.451Z,1023.86
2019-02-27T05:13:54.134Z,1023.80
2019-02-27T05:14:50.866Z,1023.82
2019-02-27T05:15:50.880Z,1023.79
2019-02-27T05:16:50.857Z,1023.74
2019-02-27T05:17:53.088Z,1023.75
2019-02-27T05:18:50.822Z,1023.67
2019-02-27T05:19:52.035Z,1023.73
2019-02-27T05:20:50.804Z,1023.72
2019-02-27T05:21:52.478Z,1023.74
2019-02-27T05:22:50.780Z,1023.73
2019-02-27T05:23:50.767Z,1023.74
2019-02-27T05:24:50.760Z,1023.71
2019-02-27T05:25:50.744Z,1023.68
2019-02-27T05:26:50.762Z,1023.74
2019-02-27T05:27:50.723Z,1023.73
2019-02-27T05:28:51.454Z,1023.74
2019-02-27T05:29:50.701Z,1023.76
2019-02-27T05:30:50.707Z,1023.74
2019-02-27T05:31:53.339Z,1023.80
2019-02-27T05:32:50.666Z,1023.72
2019-02-27T05:33:50.667Z,1023.70
2019-02-27T05:34:51.469Z,1023.75
2019-02-27T05:35:50.637Z,1023.74
2019-02-27T05:36:50.982Z,1023.74
2019-02-27T05:37:50.617Z,1023.76
2019-02-27T05:38:50.601Z,1023.71
2019-02-27T05:39:51.136Z,1023.79
2019-02-27T05:40:50.579Z,1023.79
2019-02-27T05:41:50.979Z,1023.75
2019-02-27T05:42:51.454Z,1023.77
2019-02-27T05:43:50.546Z,1023.74
2019-02-27T05:44:55.477Z,1023.75
2019-02-27T05:45:50.526Z,1023.81
2019-02-27T05:46:50.541Z,1023.80
2019-02-27T05:47:50.505Z,1023.76
2019-02-27T05:48:50.845Z,1023.78
2019-02-27T05:49:51.457Z,1023.71
2019-02-27T05:50:50.468Z,1023.66
2019-02-27T05:51:50.985Z,1023.71
2019-02-27T05:52:50.451Z,1023.62
2019-02-27T05:53:50.439Z,1023.66
2019-02-27T05:54:50.956Z,1023.71
2019-02-27T05:55:50.955Z,1023.71
2019-02-27T05:56:50.431Z,1023.72
2019-02-27T05:57:50.393Z,1023.71
2019-02-27T05:58:50.383Z,1023.69
2019-02-27T05:59:50.970Z,1023.70
2019-02-27T06:00:50.362Z,1023.67
2019-02-27T06:01:50.489Z,1023.58
2019-02-27T06:02:50.340Z,1023.60
2019-02-27T06:03:52.318Z,1023.62
2019-02-27T06:04:50.317Z,1023.61
2019-02-27T06:05:50.306Z,1023.63
2019-02-27T06:06:50.468Z,1023.60
2019-02-27T06:07:50.284Z,1023.61
2019-02-27T06:08:50.274Z,1023.58
2019-02-27T06:09:50.300Z,1023.62
2019-02-27T06:10:55.191Z,1023.60
2019-02-27T06:11:50.243Z,1023.59
2019-02-27T06:12:50.237Z,1023.54
2019-02-27T06:13:50.217Z,1023.52
2019-02-27T06:14:54.794Z,1023.52
2019-02-27T06:15:50.196Z,1023.51
2019-02-27T06:16:50.186Z,1023.52
2019-02-27T06:17:50.186Z,1023.53
2019-02-27T06:18:50.163Z,1023.57
2019-02-27T06:19:50.958Z,1023.47
2019-02-27T06:20:50.141Z,1023.56
2019-02-27T06:21:50.135Z,1023.59
2019-02-27T06:22:50.134Z,1023.56
2019-02-27T06:23:50.112Z,1023.62
2019-02-27T06:24:50.097Z,1023.54
2019-02-27T06:25:50.093Z,1023.49
2019-02-27T06:26:50.075Z,1023.46
2019-02-27T06:27:50.095Z,1023.57
2019-02-27T06:28:50.958Z,1023.60
2019-02-27T06:29:50.967Z,1023.63
2019-02-27T06:30:50.034Z,1023.62
2019-02-27T06:31:50.035Z,1023.59
2019-02-27T06:32:50.476Z,1023.59
2019-02-27T06:33:50.958Z,1023.63
2019-02-27T06:34:50.960Z,1023.62
2019-02-27T06:35:49.978Z,1023.62
2019-02-27T06:36:49.989Z,1023.62
2019-02-27T06:37:50.862Z,1023.57
2019-02-27T06:38:49.942Z,1023.62
2019-02-27T06:39:49.942Z,1023.58
2019-02-27T06:40:49.920Z,1023.60
2019-02-27T06:41:50.438Z,1023.60
2019-02-27T06:42:53.432Z,1023.63
2019-02-27T06:43:49.889Z,1023.56
2019-02-27T06:44:49.882Z,1023.54
2019-02-27T06:45:49.871Z,1023.55
2019-02-27T06:46:51.146Z,1023.49
2019-02-27T06:47:49.870Z,1023.52
2019-02-27T06:48:50.458Z,1023.50
2019-02-27T06:49:51.976Z,1023.50
2019-02-27T06:50:49.816Z,1023.48
2019-02-27T06:51:50.474Z,1023.52
2019-02-27T06:52:50.459Z,1023.46
2019-02-27T06:53:49.795Z,1023.55
2019-02-27T06:54:51.917Z,1023.52
2019-02-27T06:55:49.763Z,1023.49
2019-02-27T06:56:50.475Z,1023.47
2019-02-27T06:57:49.742Z,1023.43
2019-02-27T06:58:50.140Z,1023.43
2019-02-27T06:59:49.715Z,1023.45
2019-02-27T07:00:50.462Z,1023.44
2019-02-27T07:01:50.474Z,1023.43
2019-02-27T07:02:49.687Z,1023.41
2019-02-27T07:03:49.682Z,1023.42
2019-02-27T07:04:49.660Z,1023.46
2019-02-27T07:05:50.477Z,1023.49
2019-02-27T07:06:49.644Z,1023.38
2019-02-27T07:07:49.629Z,1023.49
2019-02-27T07:08:49.632Z,1023.41
2019-02-27T07:09:49.604Z,1023.35
2019-02-27T07:10:49.596Z,1023.41
2019-02-27T07:11:49.586Z,1023.37
2019-02-27T07:12:54.404Z,1023.30
2019-02-27T07:13:49.571Z,1023.33
2019-02-27T07:14:50.468Z,1023.34
2019-02-27T07:15:49.542Z,1023.37
2019-02-27T07:16:49.534Z,1023.35
2019-02-27T07:17:50.460Z,1023.42
2019-02-27T07:18:49.526Z,1023.38
2019-02-27T07:19:49.888Z,1023.41
2019-02-27T07:20:49.485Z,1023.41
2019-02-27T07:21:50.460Z,1023.41
2019-02-27T07:22:49.961Z,1023.35
2019-02-27T07:23:49.466Z,1023.37
2019-02-27T07:24:49.441Z,1023.36
2019-02-27T07:25:49.430Z,1023.35
2019-02-27T07:26:50.292Z,1023.33
2019-02-27T07:27:49.411Z,1023.32
2019-02-27T07:28:49.410Z,1023.32
2019-02-27T07:29:49.973Z,1023.29
2019-02-27T07:30:49.379Z,1023.16
2019-02-27T07:31:49.515Z,1023.23
2019-02-27T07:32:49.980Z,1023.24
2019-02-27T07:33:49.376Z,1023.17
2019-02-27T07:34:49.779Z,1023.18
2019-02-27T07:35:49.324Z,1023.21
2019-02-27T07:36:49.309Z,1023.18
2019-02-27T07:37:49.974Z,1023.20
2019-02-27T07:38:49.299Z,1023.21
2019-02-27T07:39:49.963Z,1023.33
2019-02-27T07:40:49.265Z,1023.33
2019-02-27T07:41:49.979Z,1023.38
2019-02-27T07:42:49.256Z,1023.40
2019-02-27T07:43:49.234Z,1023.46
2019-02-27T07:44:49.228Z,1023.46
2019-02-27T07:45:49.211Z,1023.46
2019-02-27T07:46:49.203Z,1023.49
2019-02-27T07:47:49.200Z,1023.50
2019-02-27T07:48:49.173Z,1023.53
2019-02-27T07:49:49.178Z,1023.51
2019-02-27T07:50:49.963Z,1023.60
2019-02-27T07:51:49.145Z,1023.55
2019-02-27T07:52:49.174Z,1023.59
2019-02-27T07:53:51.445Z,1023.58
2019-02-27T07:54:49.483Z,1023.57
2019-02-27T07:55:49.105Z,1023.55
2019-02-27T07:56:49.088Z,1023.51
2019-02-27T07:57:49.079Z,1023.47
2019-02-27T07:58:49.078Z,1023.52
2019-02-27T07:59:49.478Z,1023.44
2019-02-27T08:00:49.839Z,1023.39
2019-02-27T08:01:49.034Z,1023.50
2019-02-27T08:02:49.022Z,1023.51
2019-02-27T08:03:49.977Z,1023.49
2019-02-27T08:04:51.675Z,1023.48
2019-02-27T08:05:48.991Z,1023.50
2019-02-27T08:06:48.981Z,1023.52
2019-02-27T08:07:49.877Z,1023.39
2019-02-27T08:08:49.480Z,1023.37
2019-02-27T08:09:48.958Z,1023.53
2019-02-27T08:10:48.937Z,1023.54
2019-02-27T08:11:49.465Z,1023.48
2019-02-27T08:12:48.946Z,1023.45
2019-02-27T08:13:48.914Z,1023.46
2019-02-27T08:14:48.908Z,1023.39
2019-02-27T08:15:49.469Z,1023.47
2019-02-27T08:16:48.874Z,1023.46
2019-02-27T08:17:48.934Z,1023.46
2019-02-27T08:18:48.876Z,1023.43
2019-02-27T08:19:48.985Z,1023.48
2019-02-27T08:20:54.200Z,1023.50
2019-02-27T08:21:48.817Z,1023.46
2019-02-27T08:22:49.652Z,1023.41
2019-02-27T08:23:49.478Z,1023.47
2019-02-27T08:24:48.979Z,1023.48
2019-02-27T08:25:48.772Z,1023.50
2019-02-27T08:26:49.204Z,1023.48
2019-02-27T08:27:48.750Z,1023.41
2019-02-27T08:28:48.748Z,1023.47
2019-02-27T08:29:48.727Z,1023.43
2019-02-27T08:30:48.722Z,1023.47
2019-02-27T08:31:48.722Z,1023.43
2019-02-27T08:32:48.693Z,1023.45
2019-02-27T08:33:48.682Z,1023.44
2019-02-27T08:34:48.676Z,1023.43
2019-02-27T08:35:49.496Z,1023.42
2019-02-27T08:36:48.660Z,1023.34
2019-02-27T08:37:49.467Z,1023.42
2019-02-27T08:38:48.647Z,1023.43
2019-02-27T08:39:49.471Z,1023.44
2019-02-27T08:40:48.615Z,1023.48
2019-02-27T08:41:48.592Z,1023.35
2019-02-27T08:42:49.467Z,1023.48
2019-02-27T08:43:48.582Z,1023.41
2019-02-27T08:44:49.466Z,1023.43
2019-02-27T08:45:48.557Z,1023.29
2019-02-27T08:46:48.538Z,1023.29
2019-02-27T08:47:48.531Z,1023.24
2019-02-27T08:48:50.111Z,1023.29
2019-02-27T08:49:48.506Z,1023.29
2019-02-27T08:50:48.512Z,1023.21
2019-02-27T08:51:48.488Z,1023.22
2019-02-27T08:52:51.549Z,1023.23
2019-02-27T08:53:48.992Z,1023.27
2019-02-27T08:54:48.453Z,1023.20
2019-02-27T08:55:48.450Z,1023.18
2019-02-27T08:56:48.443Z,1023.23
2019-02-27T08:57:49.927Z,1023.18
2019-02-27T08:58:48.411Z,1023.26
2019-02-27T08:59:48.971Z,1023.19
2019-02-27T09:00:48.397Z,1023.25
2019-02-27T09:01:48.990Z,1023.16
2019-02-27T09:02:48.364Z,1023.15
2019-02-27T09:03:49.153Z,1023.14
2019-02-27T09:04:48.974Z,1023.10
2019-02-27T09:05:51.003Z,1023.15
2019-02-27T09:06:48.330Z,1023.11
2019-02-27T09:07:48.313Z,1023.14
2019-02-27T09:08:48.310Z,1023.12
2019-02-27T09:09:51.376Z,1023.09
2019-02-27T09:10:48.274Z,1023.06
2019-02-27T09:11:48.989Z,1023.06
2019-02-27T09:12:49.101Z,1023.05
2019-02-27T09:13:48.242Z,1023.05
2019-02-27T09:14:48.970Z,1023.13
2019-02-27T09:15:48.224Z,1023.09
2019-02-27T09:16:48.221Z,1023.03
2019-02-27T09:17:48.198Z,1023.07
2019-02-27T09:18:48.190Z,1023.08
2019-02-27T09:19:48.972Z,1023.10
2019-02-27T09:20:53.039Z,1023.06
2019-02-27T09:21:48.164Z,1023.06
2019-02-27T09:22:48.146Z,1023.08
2019-02-27T09:23:48.131Z,1023.05
2019-02-27T09:24:48.123Z,1023.06
2019-02-27T09:25:48.957Z,1023.07
2019-02-27T09:26:48.121Z,1023.13
2019-02-27T09:27:48.970Z,1023.10
2019-02-27T09:28:48.108Z,1023.08
2019-02-27T09:29:49.392Z,1023.08
2019-02-27T09:30:48.055Z,1023.09
2019-02-27T09:31:51.063Z,1022.99
2019-02-27T09:32:48.044Z,1022.96
2019-02-27T09:33:48.024Z,1023.00
2019-02-27T09:34:49.111Z,1022.99
2019-02-27T09:35:48.001Z,1023.04
2019-02-27T09:36:49.161Z,1022.96
2019-02-27T09:37:51.238Z,1023.02
2019-02-27T09:38:48.000Z,1022.99
2019-02-27T09:39:48.016Z,1022.96
2019-02-27T09:40:47.951Z,1023.10
2019-02-27T09:41:48.478Z,1022.99
2019-02-27T09:42:50.226Z,1022.96
2019-02-27T09:43:47.923Z,1022.98
2019-02-27T09:44:48.482Z,1022.96
2019-02-27T09:45:48.485Z,1022.93
2019-02-27T09:46:49.922Z,1022.98
2019-02-27T09:47:47.879Z,1023.03
2019-02-27T09:48:48.471Z,1023.05
2019-02-27T09:49:47.858Z,1023.01
2019-02-27T09:50:48.917Z,1022.97
2019-02-27T09:51:47.826Z,1022.96
2019-02-27T09:52:47.825Z,1022.96
2019-02-27T09:53:47.805Z,1022.97
2019-02-27T09:54:48.482Z,1022.96
2019-02-27T09:55:47.779Z,1023.04
2019-02-27T09:56:48.471Z,1022.99
2019-02-27T09:57:47.773Z,1022.99
2019-02-27T09:58:48.472Z,1022.97
2019-02-27T09:59:51.107Z,1023.03
2019-02-27T10:00:47.729Z,1023.03
2019-02-27T10:01:48.476Z,1023.01
2019-02-27T10:02:47.726Z,1022.97
2019-02-27T10:03:47.692Z,1023.01
2019-02-27T10:04:47.690Z,1023.06
2019-02-27T10:05:47.875Z,1023.02
2019-02-27T10:06:47.667Z,1022.93
2019-02-27T10:07:51.345Z,1022.94
2019-02-27T10:08:47.651Z,1022.89
2019-02-27T10:09:47.637Z,1022.87
2019-02-27T10:10:47.615Z,1022.88
2019-02-27T10:11:47.605Z,1022.87
2019-02-27T10:12:47.616Z,1022.79
2019-02-27T10:13:47.588Z,1022.84
2019-02-27T10:14:50.253Z,1022.78
2019-02-27T10:15:47.562Z,1022.83
2019-02-27T10:16:48.479Z,1022.79
2019-02-27T10:17:47.549Z,1022.75
2019-02-27T10:18:47.529Z,1022.73
2019-02-27T10:19:48.497Z,1022.67
2019-02-27T10:20:48.475Z,1022.70
2019-02-27T10:21:47.643Z,1022.67
2019-02-27T10:22:47.514Z,1022.62
2019-02-27T10:23:47.482Z,1022.61
2019-02-27T10:24:47.477Z,1022.62
2019-02-27T10:25:49.851Z,1022.64
2019-02-27T10:26:47.458Z,1022.60
2019-02-27T10:27:47.460Z,1022.60
2019-02-27T10:28:47.431Z,1022.56
2019-02-27T10:29:48.514Z,1022.58
2019-02-27T10:30:49.914Z,1022.54
2019-02-27T10:31:48.023Z,1022.53
2019-02-27T10:32:47.372Z,1022.57
2019-02-27T10:33:47.369Z,1022.53
2019-02-27T10:34:47.360Z,1022.52
2019-02-27T10:35:47.348Z,1022.51
2019-02-27T10:36:47.718Z,1022.44
2019-02-27T10:37:50.403Z,1022.49
2019-02-27T10:38:48.002Z,1022.45
2019-02-27T10:39:47.296Z,1022.44
2019-02-27T10:40:47.291Z,1022.40
2019-02-27T10:41:49.702Z,1022.40
2019-02-27T10:42:50.334Z,1022.40
2019-02-27T10:43:47.271Z,1022.40
2019-02-27T10:44:48.020Z,1022.38
2019-02-27T10:45:49.299Z,1022.37
2019-02-27T10:46:48.174Z,1022.38
2019-02-27T10:47:47.211Z,1022.41
2019-02-27T10:48:47.666Z,1022.31
2019-02-27T10:49:47.199Z,1022.42
2019-02-27T10:50:47.982Z,1022.34
2019-02-27T10:51:47.177Z,1022.39
2019-02-27T10:52:49.949Z,1022.35
2019-02-27T10:53:47.156Z,1022.30
2019-02-27T10:54:47.145Z,1022.32
2019-02-27T10:55:49.322Z,1022.29
2019-02-27T10:56:47.116Z,1022.25
2019-02-27T10:57:47.115Z,1022.31
2019-02-27T10:58:47.679Z,1022.29
2019-02-27T10:59:47.110Z,1022.24
2019-02-27T11:00:47.070Z,1022.26
2019-02-27T11:01:47.977Z,1022.26
2019-02-27T11:02:47.903Z,1022.21
2019-02-27T11:03:47.489Z,1022.19
2019-02-27T11:04:47.029Z,1022.15
2019-02-27T11:05:47.012Z,1022.18
2019-02-27T11:06:47.002Z,1022.20
2019-02-27T11:07:46.992Z,1022.12
2019-02-27T11:08:46.981Z,1022.13
2019-02-27T11:09:46.991Z,1022.13
2019-02-27T11:10:47.481Z,1022.15
2019-02-27T11:11:48.682Z,1022.04
2019-02-27T11:12:46.938Z,1022.03
2019-02-27T11:13:48.463Z,1021.98
2019-02-27T11:14:46.936Z,1021.98
2019-02-27T11:15:47.478Z,1021.97
2019-02-27T11:16:46.896Z,1021.96
2019-02-27T11:17:46.884Z,1021.92
2019-02-27T11:18:46.875Z,1021.94
2019-02-27T11:19:47.005Z,1021.94
2019-02-27T11:20:47.483Z,1021.93
2019-02-27T11:21:46.838Z,1021.91
2019-02-27T11:22:46.842Z,1021.90
2019-02-27T11:23:47.482Z,1021.82
2019-02-27T11:24:49.008Z,1021.88
2019-02-27T11:25:47.575Z,1021.91
2019-02-27T11:26:46.785Z,1021.86
2019-02-27T11:27:46.777Z,1021.90
2019-02-27T11:28:47.848Z,1021.87
2019-02-27T11:29:47.021Z,1021.86
2019-02-27T11:30:47.488Z,1021.81
2019-02-27T11:31:47.478Z,1021.81
2019-02-27T11:32:47.478Z,1021.80
2019-02-27T11:33:46.703Z,1021.75
2019-02-27T11:34:48.504Z,1021.75
2019-02-27T11:35:46.681Z,1021.76
2019-02-27T11:36:46.672Z,1021.79
2019-02-27T11:37:47.514Z,1021.83
2019-02-27T11:38:47.501Z,1021.80
2019-02-27T11:39:46.643Z,1021.78
2019-02-27T11:40:46.776Z,1021.83
2019-02-27T11:41:48.466Z,1021.77
2019-02-27T11:42:47.527Z,1021.77
2019-02-27T11:43:47.507Z,1021.76
2019-02-27T11:44:49.455Z,1021.77
2019-02-27T11:45:46.572Z,1021.75
2019-02-27T11:46:46.565Z,1021.67
2019-02-27T11:47:48.127Z,1021.66
2019-02-27T11:48:47.480Z,1021.60
2019-02-27T11:49:46.542Z,1021.57
2019-02-27T11:50:47.508Z,1021.55
2019-02-27T11:51:46.505Z,1021.54
2019-02-27T11:52:49.119Z,1021.54
2019-02-27T11:53:46.483Z,1021.48
2019-02-27T11:54:46.484Z,1021.47
2019-02-27T11:55:47.387Z,1021.41
2019-02-27T11:56:46.450Z,1021.44
2019-02-27T11:57:46.437Z,1021.39
2019-02-27T11:58:46.427Z,1021.38
2019-02-27T11:59:46.892Z,1021.42
2019-02-27T12:00:46.502Z,1021.39
2019-02-27T12:01:46.409Z,1021.31
2019-02-27T12:02:46.385Z,1021.34
2019-02-27T12:03:46.568Z,1021.23
2019-02-27T12:04:46.362Z,1021.31
2019-02-27T12:05:46.369Z,1021.28